sensor_id;sensor_type;location;lat;lon;timestamp;pressure;altitude;pressure_sealevel;temperature;humidity
32324;BME280;25666;44.350;9.222;2023-07-02T00:01:43;100950.25;;;20.86;100.00
32324;BME280;25666;44.350;9.222;2023-07-02T00:04:09;100961.16;;;20.87;100.00
32324;BME280;25666;44.350;9.222;2023-07-02T00:06:36;100956.34;;;20.80;100.00
32324;BME280;25666;44.350;9.222;2023-07-02T00:09:07;100951.06;;;20.86;100.00
32324;BME280;25666;44.350;9.222;2023-07-02T00:11:32;100948.25;;;20.82;100.00
32324;BME280;25666;44.350;9.222;2023-07-02T00:13:58;100942.22;;;20.77;100.00
32324;BME280;25666;44.350;9.222;2023-07-02T00:16:24;100951.94;;;20.76;100.00
32324;BME280;25666;44.350;9.222;2023-07-02T00:18:49;100950.69;;;20.80;100.00
32324;BME280;25666;44.350;9.222;2023-07-02T00:21:21;100943.81;;;20.81;100.00
32324;BME280;25666;44.350;9.222;2023-07-02T00:23:47;100937.75;;;20.83;100.00
32324;BME280;25666;44.350;9.222;2023-07-02T00:26:13;100950.25;;;20.86;100.00
32324;BME280;25666;44.350;9.222;2023-07-02T00:28:39;100943.78;;;20.85;100.00
32324;BME280;25666;44.350;9.222;2023-07-02T00:31:05;100943.84;;;20.74;100.00
32324;BME280;25666;44.350;9.222;2023-07-02T00:33:31;100946.84;;;20.53;100.00
32324;BME280;25666;44.350;9.222;2023-07-02T00:35:57;100946.78;;;20.64;100.00
32324;BME280;25666;44.350;9.222;2023-07-02T00:38:26;100954.41;;;20.70;100.00
32324;BME280;25666;44.350;9.222;2023-07-02T00:40:51;100950.78;;;20.70;100.00
32324;BME280;25666;44.350;9.222;2023-07-02T00:43:17;100947.97;;;20.66;100.00
32324;BME280;25666;44.350;9.222;2023-07-02T00:45:44;100946.75;;;20.67;100.00
32324;BME280;25666;44.350;9.222;2023-07-02T00:48:10;100947.19;;;20.59;100.00
32324;BME280;25666;44.350;9.222;2023-07-02T00:50:36;100954.09;;;20.58;100.00
32324;BME280;25666;44.350;9.222;2023-07-02T00:53:02;100956.50;;;20.59;100.00
32324;BME280;25666;44.350;9.222;2023-07-02T00:55:28;100954.50;;;20.56;100.00
32324;BME280;25666;44.350;9.222;2023-07-02T00:57:54;100955.66;;;20.62;100.00
32324;BME280;25666;44.350;9.222;2023-07-02T01:00:22;100951.63;;;20.63;100.00
32324;BME280;25666;44.350;9.222;2023-07-02T01:02:55;100950.44;;;20.61;100.00
32324;BME280;25666;44.350;9.222;2023-07-02T01:05:28;100959.31;;;20.63;100.00
32324;BME280;25666;44.350;9.222;2023-07-02T01:08:12;100959.69;;;20.61;100.00
32324;BME280;25666;44.350;9.222;2023-07-02T01:10:38;100951.59;;;20.67;100.00
32324;BME280;25666;44.350;9.222;2023-07-02T01:13:09;100953.59;;;20.70;100.00
32324;BME280;25666;44.350;9.222;2023-07-02T01:15:37;100953.59;;;20.70;100.00
32324;BME280;25666;44.350;9.222;2023-07-02T01:18:05;100954.81;;;20.69;100.00
32324;BME280;25666;44.350;9.222;2023-07-02T01:20:32;100964.50;;;20.71;100.00
32324;BME280;25666;44.350;9.222;2023-07-02T01:22:59;100953.59;;;20.70;100.00
32324;BME280;25666;44.350;9.222;2023-07-02T01:25:29;100960.09;;;20.67;100.00
32324;BME280;25666;44.350;9.222;2023-07-02T01:27:55;100949.63;;;20.60;100.00
32324;BME280;25666;44.350;9.222;2023-07-02T01:30:24;100963.44;;;20.44;100.00
32324;BME280;25666;44.350;9.222;2023-07-02T01:32:50;100956.19;;;20.40;100.00
32324;BME280;25666;44.350;9.222;2023-07-02T01:35:16;100965.06;;;20.45;100.00
32324;BME280;25666;44.350;9.222;2023-07-02T01:37:41;100952.19;;;20.37;100.00
32324;BME280;25666;44.350;9.222;2023-07-02T01:40:07;100957.78;;;20.51;100.00
32324;BME280;25666;44.350;9.222;2023-07-02T01:42:37;100957.38;;;20.46;100.00
32324;BME280;25666;44.350;9.222;2023-07-02T01:45:04;100958.66;;;20.34;100.00
32324;BME280;25666;44.350;9.222;2023-07-02T01:47:30;100964.28;;;20.38;100.00
32324;BME280;25666;44.350;9.222;2023-07-02T01:49:55;100965.06;;;20.45;100.00
32324;BME280;25666;44.350;9.222;2023-07-02T01:52:21;100967.44;;;20.57;100.00
32324;BME280;25666;44.350;9.222;2023-07-02T01:54:47;100961.31;;;20.66;100.00
32324;BME280;25666;44.350;9.222;2023-07-02T01:57:13;100957.69;;;20.58;100.00
32324;BME280;25666;44.350;9.222;2023-07-02T01:59:40;100958.53;;;20.55;100.00
32324;BME280;25666;44.350;9.222;2023-07-02T02:02:06;100960.16;;;20.53;100.00
32324;BME280;25666;44.350;9.222;2023-07-02T02:04:35;100952.16;;;20.41;100.00
32324;BME280;25666;44.350;9.222;2023-07-02T02:07:01;100963.03;;;20.46;100.00
32324;BME280;25666;44.350;9.222;2023-07-02T02:09:26;100964.25;;;20.48;100.00
32324;BME280;25666;44.350;9.222;2023-07-02T02:11:53;100960.97;;;20.53;100.00
32324;BME280;25666;44.350;9.222;2023-07-02T02:14:19;100961.47;;;20.38;100.00
32324;BME280;25666;44.350;9.222;2023-07-02T02:16:45;100954.66;;;20.28;100.00
32324;BME280;25666;44.350;9.222;2023-07-02T02:19:11;100957.91;;;20.26;100.00
32324;BME280;25666;44.350;9.222;2023-07-02T02:21:37;100959.91;;;20.29;100.00
32324;BME280;25666;44.350;9.222;2023-07-02T02:24:03;100961.91;;;20.22;100.00
32324;BME280;25666;44.350;9.222;2023-07-02T02:26:29;100955.47;;;20.18;100.00
32324;BME280;25666;44.350;9.222;2023-07-02T02:28:55;100958.31;;;20.14;100.00
32324;BME280;25666;44.350;9.222;2023-07-02T02:31:21;100957.91;;;20.19;100.00
32324;BME280;25666;44.350;9.222;2023-07-02T02:33:47;100959.56;;;20.10;100.00
32324;BME280;25666;44.350;9.222;2023-07-02T02:36:13;100953.88;;;20.17;100.00
32324;BME280;25666;44.350;9.222;2023-07-02T02:38:39;100958.28;;;20.21;100.00
32324;BME280;25666;44.350;9.222;2023-07-02T02:41:05;100959.91;;;20.22;100.00
32324;BME280;25666;44.350;9.222;2023-07-02T02:43:35;100957.91;;;20.26;100.00
32324;BME280;25666;44.350;9.222;2023-07-02T02:46:02;100951.41;;;20.22;100.00
32324;BME280;25666;44.350;9.222;2023-07-02T02:48:28;100954.69;;;20.14;100.00
32324;BME280;25666;44.350;9.222;2023-07-02T02:50:54;100956.28;;;20.11;100.00
32324;BME280;25666;44.350;9.222;2023-07-02T02:53:19;100966.41;;;20.12;100.00
32324;BME280;25666;44.350;9.222;2023-07-02T02:55:45;100968.84;;;20.10;100.00
32324;BME280;25666;44.350;9.222;2023-07-02T02:58:10;100959.56;;;20.06;100.00
32324;BME280;25666;44.350;9.222;2023-07-02T03:00:36;100957.53;;;20.07;100.00
32324;BME280;25666;44.350;9.222;2023-07-02T03:03:03;100966.84;;;20.07;100.00
32324;BME280;25666;44.350;9.222;2023-07-02T03:05:29;100960.75;;;20.05;100.00
32324;BME280;25666;44.350;9.222;2023-07-02T03:07:55;100966.84;;;20.04;100.00
32324;BME280;25666;44.350;9.222;2023-07-02T03:10:22;100960.78;;;20.02;100.00
32324;BME280;25666;44.350;9.222;2023-07-02T03:12:48;100967.66;;;20.08;100.00
32324;BME280;25666;44.350;9.222;2023-07-02T03:15:14;100968.88;;;19.93;100.00
32324;BME280;25666;44.350;9.222;2023-07-02T03:17:39;100970.94;;;19.92;100.00
32324;BME280;25666;44.350;9.222;2023-07-02T03:20:05;100972.53;;;19.93;100.00
32324;BME280;25666;44.350;9.222;2023-07-02T03:22:33;100969.69;;;19.97;100.00
32324;BME280;25666;44.350;9.222;2023-07-02T03:24:58;100964.03;;;20.00;100.00
32324;BME280;25666;44.350;9.222;2023-07-02T03:27:24;100966.41;;;20.05;100.00
32324;BME280;25666;44.350;9.222;2023-07-02T03:29:51;100974.50;;;20.03;100.00
32324;BME280;25666;44.350;9.222;2023-07-02T03:32:17;100978.97;;;20.04;100.00
32324;BME280;25666;44.350;9.222;2023-07-02T03:34:42;100976.91;;;20.05;100.00
32324;BME280;25666;44.350;9.222;2023-07-02T03:37:08;100985.00;;;20.06;100.00
32324;BME280;25666;44.350;9.222;2023-07-02T03:39:33;100984.19;;;20.09;100.00
32324;BME280;25666;44.350;9.222;2023-07-02T03:41:59;100985.00;;;19.96;100.00
32324;BME280;25666;44.350;9.222;2023-07-02T03:44:24;100980.53;;;20.05;100.00
32324;BME280;25666;44.350;9.222;2023-07-02T03:46:53;100986.16;;;20.16;100.00
32324;BME280;25666;44.350;9.222;2023-07-02T03:49:19;100983.34;;;20.19;100.00
32324;BME280;25666;44.350;9.222;2023-07-02T03:51:44;100991.81;;;20.26;100.00
32324;BME280;25666;44.350;9.222;2023-07-02T03:54:10;100997.88;;;20.14;100.00
32324;BME280;25666;44.350;9.222;2023-07-02T03:56:35;100994.25;;;20.14;100.00
32324;BME280;25666;44.350;9.222;2023-07-02T03:59:01;100987.44;;;19.97;100.00
32324;BME280;25666;44.350;9.222;2023-07-02T04:01:27;100996.69;;;20.12;100.00
32324;BME280;25666;44.350;9.222;2023-07-02T04:03:53;101000.31;;;20.12;100.00
32324;BME280;25666;44.350;9.222;2023-07-02T04:06:18;101002.75;;;20.10;100.00
32324;BME280;25666;44.350;9.222;2023-07-02T04:08:44;100998.28;;;20.16;100.00
32324;BME280;25666;44.350;9.222;2023-07-02T04:11:11;101001.09;;;20.23;100.00
32324;BME280;25666;44.350;9.222;2023-07-02T04:13:37;101003.50;;;20.18;100.00
32324;BME280;25666;44.350;9.222;2023-07-02T04:16:04;101006.41;;;19.93;100.00
32324;BME280;25666;44.350;9.222;2023-07-02T04:18:29;101002.78;;;20.00;100.00
32324;BME280;25666;44.350;9.222;2023-07-02T04:20:56;101016.06;;;20.10;100.00
32324;BME280;25666;44.350;9.222;2023-07-02T04:23:21;101012.06;;;20.04;100.00
32324;BME280;25666;44.350;9.222;2023-07-02T04:25:47;101017.66;;;20.18;100.00
32324;BME280;25666;44.350;9.222;2023-07-02T04:28:12;101022.47;;;20.21;100.00
32324;BME280;25666;44.350;9.222;2023-07-02T04:30:38;101021.28;;;20.29;100.00
32324;BME280;25666;44.350;9.222;2023-07-02T04:33:04;101020.06;;;20.30;100.00
32324;BME280;25666;44.350;9.222;2023-07-02T04:35:31;101016.06;;;20.06;100.00
32324;BME280;25666;44.350;9.222;2023-07-02T04:37:57;101025.75;;;20.05;100.00
32324;BME280;25666;44.350;9.222;2023-07-02T04:40:22;101031.84;;;19.97;100.00
32324;BME280;25666;44.350;9.222;2023-07-02T04:42:48;101031.84;;;20.00;100.00
32324;BME280;25666;44.350;9.222;2023-07-02T04:45:14;101032.66;;;20.04;100.00
32324;BME280;25666;44.350;9.222;2023-07-02T04:47:45;101034.66;;;20.11;100.00
32324;BME280;25666;44.350;9.222;2023-07-02T04:50:11;101035.03;;;20.16;100.00
32324;BME280;25666;44.350;9.222;2023-07-02T04:52:41;101041.06;;;20.22;100.00
32324;BME280;25666;44.350;9.222;2023-07-02T04:55:07;101041.06;;;20.22;100.00
32324;BME280;25666;44.350;9.222;2023-07-02T04:57:32;101043.09;;;20.28;100.00
32324;BME280;25666;44.350;9.222;2023-07-02T04:59:58;101037.31;;;20.60;100.00
32324;BME280;25666;44.350;9.222;2023-07-02T05:02:23;101030.34;;;20.75;100.00
32324;BME280;25666;44.350;9.222;2023-07-02T05:04:49;101032.38;;;20.71;100.00
32324;BME280;25666;44.350;9.222;2023-07-02T05:07:18;101031.56;;;20.74;100.00
32324;BME280;25666;44.350;9.222;2023-07-02T05:09:43;101028.34;;;20.72;100.00
32324;BME280;25666;44.350;9.222;2023-07-02T05:12:09;101035.19;;;20.75;100.00
32324;BME280;25666;44.350;9.222;2023-07-02T05:14:35;101030.31;;;20.82;100.00
32324;BME280;25666;44.350;9.222;2023-07-02T05:17:00;101035.81;;;21.07;100.00
32324;BME280;25666;44.350;9.222;2023-07-02T05:19:26;101037.34;;;21.22;100.00
32324;BME280;25666;44.350;9.222;2023-07-02T05:21:52;101032.81;;;21.35;100.00
32324;BME280;25666;44.350;9.222;2023-07-02T05:24:18;101035.09;;;21.51;100.00
32324;BME280;25666;44.350;9.222;2023-07-02T05:26:44;101037.31;;;21.74;100.00
32324;BME280;25666;44.350;9.222;2023-07-02T05:29:10;101024.78;;;21.71;100.00
32324;BME280;25666;44.350;9.222;2023-07-02T05:31:35;101025.31;;;22.00;100.00
32324;BME280;25666;44.350;9.222;2023-07-02T05:34:01;101019.84;;;22.20;100.00
32324;BME280;25666;44.350;9.222;2023-07-02T05:36:27;101024.41;;;22.44;100.00
32324;BME280;25666;44.350;9.222;2023-07-02T05:38:52;101015.38;;;22.53;100.00
32324;BME280;25666;44.350;9.222;2023-07-02T05:41:21;101020.03;;;22.70;100.00
32324;BME280;25666;44.350;9.222;2023-07-02T05:43:47;101011.16;;;22.94;100.00
32324;BME280;25666;44.350;9.222;2023-07-02T05:46:14;101017.75;;;23.38;100.00
32324;BME280;25666;44.350;9.222;2023-07-02T05:48:43;101017.81;;;24.04;100.00
32324;BME280;25666;44.350;9.222;2023-07-02T05:51:09;101013.75;;;24.64;100.00
32324;BME280;25666;44.350;9.222;2023-07-02T05:53:35;101003.63;;;25.80;100.00
32324;BME280;25666;44.350;9.222;2023-07-02T05:56:01;101000.13;;;27.12;100.00
32324;BME280;25666;44.350;9.222;2023-07-02T05:58:26;101005.09;;;28.49;100.00
32324;BME280;25666;44.350;9.222;2023-07-02T06:00:52;100993.78;;;29.07;100.00
32324;BME280;25666;44.350;9.222;2023-07-02T06:03:18;100996.72;;;30.11;100.00
32324;BME280;25666;44.350;9.222;2023-07-02T06:05:47;100995.00;;;30.92;100.00
32324;BME280;25666;44.350;9.222;2023-07-02T06:08:14;101000.94;;;32.98;100.00
32324;BME280;25666;44.350;9.222;2023-07-02T06:10:39;100989.53;;;33.59;100.00
32324;BME280;25666;44.350;9.222;2023-07-02T06:13:05;101004.53;;;35.32;100.00
32324;BME280;25666;44.350;9.222;2023-07-02T06:15:31;101002.19;;;35.78;87.71
32324;BME280;25666;44.350;9.222;2023-07-02T06:17:56;100997.72;;;37.36;73.71
32324;BME280;25666;44.350;9.222;2023-07-02T06:20:22;101000.94;;;38.07;65.68
32324;BME280;25666;44.350;9.222;2023-07-02T06:22:47;101003.34;;;38.55;60.47
32324;BME280;25666;44.350;9.222;2023-07-02T06:25:13;100999.34;;;36.65;73.51
32324;BME280;25666;44.350;9.222;2023-07-02T06:27:39;101005.41;;;36.73;84.94
32324;BME280;25666;44.350;9.222;2023-07-02T06:30:05;101012.19;;;39.09;60.25
32324;BME280;25666;44.350;9.222;2023-07-02T06:32:31;101012.59;;;40.72;50.43
32324;BME280;25666;44.350;9.222;2023-07-02T06:34:57;101006.06;;;42.55;43.22
32324;BME280;25666;44.350;9.222;2023-07-02T06:37:23;101010.00;;;43.12;40.93
32324;BME280;25666;44.350;9.222;2023-07-02T06:39:48;101014.34;;;40.61;45.81
32324;BME280;25666;44.350;9.222;2023-07-02T06:42:14;101014.09;;;35.91;77.06
32324;BME280;25666;44.350;9.222;2023-07-02T06:44:40;101012.75;;;33.29;100.00
32324;BME280;25666;44.350;9.222;2023-07-02T06:47:06;101015.41;;;31.68;100.00
32324;BME280;25666;44.350;9.222;2023-07-02T06:49:32;101030.50;;;34.89;100.00
32324;BME280;25666;44.350;9.222;2023-07-02T06:51:57;101029.06;;;35.36;100.00
32324;BME280;25666;44.350;9.222;2023-07-02T06:54:25;101031.34;;;40.76;55.29
32324;BME280;25666;44.350;9.222;2023-07-02T06:56:51;101028.50;;;42.39;45.18
32324;BME280;25666;44.350;9.222;2023-07-02T06:59:21;101028.94;;;44.75;37.70
32324;BME280;25666;44.350;9.222;2023-07-02T07:01:47;101026.56;;;46.50;33.58
32324;BME280;25666;44.350;9.222;2023-07-02T07:04:13;101023.03;;;47.75;31.02
32324;BME280;25666;44.350;9.222;2023-07-02T07:06:38;101015.88;;;48.73;29.22
32324;BME280;25666;44.350;9.222;2023-07-02T07:09:04;101022.25;;;49.43;28.53
32324;BME280;25666;44.350;9.222;2023-07-02T07:11:29;101014.53;;;47.12;28.88
32324;BME280;25666;44.350;9.222;2023-07-02T07:13:55;101013.22;;;46.41;30.32
32324;BME280;25666;44.350;9.222;2023-07-02T07:16:21;101007.41;;;40.27;42.33
32324;BME280;25666;44.350;9.222;2023-07-02T07:18:47;101009.53;;;38.81;49.55
32324;BME280;25666;44.350;9.222;2023-07-02T07:21:13;101010.50;;;34.60;83.24
32324;BME280;25666;44.350;9.222;2023-07-02T07:23:39;101010.00;;;41.58;47.64
32324;BME280;25666;44.350;9.222;2023-07-02T07:26:05;101003.19;;;44.45;37.75
32324;BME280;25666;44.350;9.222;2023-07-02T07:28:31;101000.19;;;39.18;50.19
32324;BME280;25666;44.350;9.222;2023-07-02T07:30:56;101002.94;;;36.21;68.50
32324;BME280;25666;44.350;9.222;2023-07-02T07:33:22;101013.63;;;33.56;99.85
32324;BME280;25666;44.350;9.222;2023-07-02T07:35:47;101010.16;;;33.66;100.00
32324;BME280;25666;44.350;9.222;2023-07-02T07:38:14;101008.50;;;35.34;89.51
32324;BME280;25666;44.350;9.222;2023-07-02T07:40:43;101023.81;;;35.77;83.32
32324;BME280;25666;44.350;9.222;2023-07-02T07:43:09;101013.84;;;34.79;90.13
32324;BME280;25666;44.350;9.222;2023-07-02T07:45:35;101016.47;;;32.86;100.00
32324;BME280;25666;44.350;9.222;2023-07-02T07:48:01;101011.66;;;32.01;100.00
32324;BME280;25666;44.350;9.222;2023-07-02T07:50:27;101013.47;;;32.51;100.00
32324;BME280;25666;44.350;9.222;2023-07-02T07:52:53;101020.19;;;31.06;100.00
32324;BME280;25666;44.350;9.222;2023-07-02T07:55:19;101024.84;;;31.03;100.00
32324;BME280;25666;44.350;9.222;2023-07-02T07:57:44;101023.22;;;30.42;100.00
32324;BME280;25666;44.350;9.222;2023-07-02T08:00:10;101023.53;;;29.99;100.00
32324;BME280;25666;44.350;9.222;2023-07-02T08:02:46;101028.22;;;29.47;100.00
32324;BME280;25666;44.350;9.222;2023-07-02T08:05:12;101020.19;;;29.91;100.00
32324;BME280;25666;44.350;9.222;2023-07-02T08:07:39;101023.25;;;28.77;100.00
32324;BME280;25666;44.350;9.222;2023-07-02T08:10:06;101030.44;;;29.52;100.00
32324;BME280;25666;44.350;9.222;2023-07-02T08:12:33;101031.84;;;29.48;100.00
32324;BME280;25666;44.350;9.222;2023-07-02T08:14:59;101025.22;;;29.60;100.00
32324;BME280;25666;44.350;9.222;2023-07-02T08:17:25;101041.63;;;28.89;100.00
32324;BME280;25666;44.350;9.222;2023-07-02T08:19:50;101035.75;;;28.92;100.00
32324;BME280;25666;44.350;9.222;2023-07-02T08:22:16;101037.91;;;28.36;100.00
32324;BME280;25666;44.350;9.222;2023-07-02T08:24:42;101036.56;;;28.06;100.00
32324;BME280;25666;44.350;9.222;2023-07-02T08:27:08;101038.28;;;28.03;100.00
32324;BME280;25666;44.350;9.222;2023-07-02T08:29:35;101040.78;;;27.54;100.00
32324;BME280;25666;44.350;9.222;2023-07-02T08:32:01;101044.91;;;27.28;100.00
32324;BME280;25666;44.350;9.222;2023-07-02T08:34:27;101049.03;;;27.02;100.00
32324;BME280;25666;44.350;9.222;2023-07-02T08:36:52;101057.34;;;26.84;100.00
32324;BME280;25666;44.350;9.222;2023-07-02T08:39:18;101059.56;;;26.76;100.00
32324;BME280;25666;44.350;9.222;2023-07-02T08:41:45;101060.81;;;26.75;100.00
32324;BME280;25666;44.350;9.222;2023-07-02T08:44:12;101059.00;;;26.69;100.00
32324;BME280;25666;44.350;9.222;2023-07-02T08:46:43;101061.50;;;26.67;100.00
32324;BME280;25666;44.350;9.222;2023-07-02T08:49:09;101065.25;;;26.63;100.00
32324;BME280;25666;44.350;9.222;2023-07-02T08:51:35;101060.81;;;26.75;100.00
32324;BME280;25666;44.350;9.222;2023-07-02T08:54:02;101074.53;;;26.68;100.00
32324;BME280;25666;44.350;9.222;2023-07-02T08:56:28;101067.81;;;26.74;100.00
32324;BME280;25666;44.350;9.222;2023-07-02T08:58:54;101067.97;;;26.54;100.00
32324;BME280;25666;44.350;9.222;2023-07-02T09:01:20;101070.31;;;26.72;100.00
32324;BME280;25666;44.350;9.222;2023-07-02T09:03:45;101071.06;;;27.01;100.00
32324;BME280;25666;44.350;9.222;2023-07-02T09:06:12;101081.81;;;26.97;100.00
32324;BME280;25666;44.350;9.222;2023-07-02T09:08:38;101073.59;;;27.12;100.00
32324;BME280;25666;44.350;9.222;2023-07-02T09:11:14;101075.44;;;27.06;100.00
32324;BME280;25666;44.350;9.222;2023-07-02T09:13:45;101072.81;;;27.24;100.00
32324;BME280;25666;44.350;9.222;2023-07-02T09:19:03;101076.81;;;27.52;100.00
32324;BME280;25666;44.350;9.222;2023-07-02T09:21:45;101084.28;;;27.49;100.00
32324;BME280;25666;44.350;9.222;2023-07-02T09:24:17;101082.84;;;27.41;100.00
32324;BME280;25666;44.350;9.222;2023-07-02T09:26:51;101081.50;;;27.58;100.00
32324;BME280;25666;44.350;9.222;2023-07-02T09:29:24;101080.00;;;27.66;100.00
32324;BME280;25666;44.350;9.222;2023-07-02T09:31:51;101087.47;;;27.51;100.00
32324;BME280;25666;44.350;9.222;2023-07-02T09:34:17;101080.81;;;27.42;100.00
32324;BME280;25666;44.350;9.222;2023-07-02T09:36:43;101088.03;;;27.34;100.00
32324;BME280;25666;44.350;9.222;2023-07-02T09:39:18;101088.00;;;27.84;100.00
32324;BME280;25666;44.350;9.222;2023-07-02T09:41:44;101084.28;;;28.09;100.00
32324;BME280;25666;44.350;9.222;2023-07-02T09:44:13;101082.13;;;28.13;100.00
32324;BME280;25666;44.350;9.222;2023-07-02T09:46:53;101077.94;;;27.67;100.00
32324;BME280;25666;44.350;9.222;2023-07-02T09:49:22;101084.66;;;27.86;100.00
32324;BME280;25666;44.350;9.222;2023-07-02T09:51:49;101082.88;;;27.66;100.00
32324;BME280;25666;44.350;9.222;2023-07-02T09:54:14;101090.88;;;27.34;100.00
32324;BME280;25666;44.350;9.222;2023-07-02T09:56:40;101082.31;;;27.46;100.00
32324;BME280;25666;44.350;9.222;2023-07-02T09:59:07;101086.50;;;27.04;100.00
32324;BME280;25666;44.350;9.222;2023-07-02T10:01:33;101086.34;;;26.82;100.00
32324;BME280;25666;44.350;9.222;2023-07-02T10:04:10;101085.00;;;26.87;100.00
32324;BME280;25666;44.350;9.222;2023-07-02T10:06:49;101083.00;;;27.38;100.00
32324;BME280;25666;44.350;9.222;2023-07-02T10:09:34;101075.59;;;27.53;100.00
32324;BME280;25666;44.350;9.222;2023-07-02T10:12:00;101086.22;;;27.52;100.00
32324;BME280;25666;44.350;9.222;2023-07-02T10:14:26;101085.50;;;27.61;100.00
32324;BME280;25666;44.350;9.222;2023-07-02T10:16:53;101082.53;;;27.52;100.00
32324;BME280;25666;44.350;9.222;2023-07-02T10:19:19;101081.81;;;27.35;100.00
32324;BME280;25666;44.350;9.222;2023-07-02T10:21:45;101084.38;;;27.46;100.00
32324;BME280;25666;44.350;9.222;2023-07-02T10:24:16;101077.03;;;27.70;100.00
32324;BME280;25666;44.350;9.222;2023-07-02T10:26:55;101087.94;;;27.62;100.00
32324;BME280;25666;44.350;9.222;2023-07-02T10:29:28;101081.84;;;27.60;100.00
32324;BME280;25666;44.350;9.222;2023-07-02T10:31:55;101085.06;;;27.62;100.00
32324;BME280;25666;44.350;9.222;2023-07-02T10:34:47;101080.69;;;27.33;100.00
32324;BME280;25666;44.350;9.222;2023-07-02T10:37:13;101084.13;;;27.15;100.00
32324;BME280;25666;44.350;9.222;2023-07-02T10:39:39;101090.19;;;27.42;100.00
32324;BME280;25666;44.350;9.222;2023-07-02T10:42:06;101079.66;;;27.77;100.00
32324;BME280;25666;44.350;9.222;2023-07-02T10:44:33;101087.16;;;27.96;100.00
32324;BME280;25666;44.350;9.222;2023-07-02T10:46:59;101094.84;;;27.87;100.00
32324;BME280;25666;44.350;9.222;2023-07-02T10:49:30;101089.91;;;28.12;100.00
32324;BME280;25666;44.350;9.222;2023-07-02T10:52:00;101085.28;;;27.55;100.00
32324;BME280;25666;44.350;9.222;2023-07-02T10:54:38;101095.47;;;27.69;100.00
32324;BME280;25666;44.350;9.222;2023-07-02T10:57:05;101095.31;;;27.73;100.00
32324;BME280;25666;44.350;9.222;2023-07-02T10:59:30;101106.84;;;27.94;100.00
32324;BME280;25666;44.350;9.222;2023-07-02T11:01:56;101100.63;;;28.21;100.00
32324;BME280;25666;44.350;9.222;2023-07-02T11:04:27;101101.97;;;28.29;100.00
32324;BME280;25666;44.350;9.222;2023-07-02T11:06:53;101104.03;;;28.29;100.00
32324;BME280;25666;44.350;9.222;2023-07-02T11:09:18;101107.34;;;28.27;100.00
32324;BME280;25666;44.350;9.222;2023-07-02T11:11:55;101110.47;;;28.20;100.00
32324;BME280;25666;44.350;9.222;2023-07-02T11:16:57;101104.41;;;27.58;100.00
32324;BME280;25666;44.350;9.222;2023-07-02T11:19:23;101108.28;;;27.64;100.00
32324;BME280;25666;44.350;9.222;2023-07-02T11:21:54;101106.09;;;27.69;100.00
32324;BME280;25666;44.350;9.222;2023-07-02T11:24:32;101117.41;;;27.85;100.00
32324;BME280;25666;44.350;9.222;2023-07-02T11:26:59;101115.31;;;27.98;100.00
32324;BME280;25666;44.350;9.222;2023-07-02T11:29:25;101105.97;;;27.85;100.00
32324;BME280;25666;44.350;9.222;2023-07-02T11:31:51;101110.28;;;27.89;100.00
32324;BME280;25666;44.350;9.222;2023-07-02T11:34:18;101112.31;;;28.01;100.00
32324;BME280;25666;44.350;9.222;2023-07-02T11:36:44;101117.31;;;27.50;100.00
32324;BME280;25666;44.350;9.222;2023-07-02T11:39:10;101117.16;;;27.41;100.00
32324;BME280;25666;44.350;9.222;2023-07-02T11:41:42;101112.50;;;27.60;100.00
32324;BME280;25666;44.350;9.222;2023-07-02T11:44:09;101111.72;;;27.47;100.00
32324;BME280;25666;44.350;9.222;2023-07-02T11:46:35;101108.03;;;27.34;100.00
32324;BME280;25666;44.350;9.222;2023-07-02T11:49:01;101121.41;;;27.37;100.00
32324;BME280;25666;44.350;9.222;2023-07-02T11:51:30;101108.72;;;27.50;100.00
32324;BME280;25666;44.350;9.222;2023-07-02T11:53:57;101111.94;;;27.52;100.00
32324;BME280;25666;44.350;9.222;2023-07-02T11:56:23;101104.84;;;27.44;100.00
32324;BME280;25666;44.350;9.222;2023-07-02T11:58:49;101117.38;;;26.96;100.00
32324;BME280;25666;44.350;9.222;2023-07-02T12:01:15;101116.25;;;27.06;100.00
32324;BME280;25666;44.350;9.222;2023-07-02T12:03:41;101112.72;;;27.15;100.00
32324;BME280;25666;44.350;9.222;2023-07-02T12:06:07;101122.38;;;26.92;100.00
32324;BME280;25666;44.350;9.222;2023-07-02T12:08:32;101116.03;;;27.26;100.00
32324;BME280;25666;44.350;9.222;2023-07-02T12:10:58;101115.38;;;26.81;100.00
32324;BME280;25666;44.350;9.222;2023-07-02T12:13:24;101118.78;;;27.42;100.00
32324;BME280;25666;44.350;9.222;2023-07-02T12:15:49;101118.38;;;27.44;100.00
32324;BME280;25666;44.350;9.222;2023-07-02T12:18:17;101114.44;;;27.25;100.00
32324;BME280;25666;44.350;9.222;2023-07-02T12:23:23;101120.81;;;27.29;100.00
32324;BME280;25666;44.350;9.222;2023-07-02T12:25:49;101116.41;;;27.53;100.00
32324;BME280;25666;44.350;9.222;2023-07-02T12:28:15;101115.81;;;27.33;100.00
32324;BME280;25666;44.350;9.222;2023-07-02T12:30:40;101121.94;;;27.19;100.00
32324;BME280;25666;44.350;9.222;2023-07-02T12:33:06;101124.59;;;27.26;100.00
32324;BME280;25666;44.350;9.222;2023-07-02T12:35:31;101124.13;;;26.74;100.00
32324;BME280;25666;44.350;9.222;2023-07-02T12:37:57;101117.59;;;26.73;100.00
32324;BME280;25666;44.350;9.222;2023-07-02T12:40:23;101123.50;;;26.82;100.00
32324;BME280;25666;44.350;9.222;2023-07-02T12:42:48;101115.41;;;26.65;100.00
32324;BME280;25666;44.350;9.222;2023-07-02T12:45:17;101116.53;;;26.83;100.00
32324;BME280;25666;44.350;9.222;2023-07-02T12:47:47;101116.25;;;26.78;100.00